sensor_id;sensor_type;location;lat;lon;timestamp;P1;durP1;ratioP1;P2;durP2;ratioP2
75768;SDS011;64379;48.888;8.330;2023-03-01T00:01:33;15.75;;;6.70;;
75768;SDS011;64379;48.888;8.330;2023-03-01T00:03:59;17.48;;;7.82;;
75768;SDS011;64379;48.888;8.330;2023-03-01T00:06:25;17.08;;;7.22;;
75768;SDS011;64379;48.888;8.330;2023-03-01T00:08:51;19.38;;;7.88;;
75768;SDS011;64379;48.888;8.330;2023-03-01T00:11:18;22.00;;;7.68;;
75768;SDS011;64379;48.888;8.330;2023-03-01T00:13:46;18.45;;;7.55;;
75768;SDS011;64379;48.888;8.330;2023-03-01T00:16:15;16.05;;;7.35;;
75768;SDS011;64379;48.888;8.330;2023-03-01T00:18:45;16.10;;;7.43;;
75768;SDS011;64379;48.888;8.330;2023-03-01T00:21:11;19.35;;;7.43;;
75768;SDS011;64379;48.888;8.330;2023-03-01T00:23:38;18.70;;;7.32;;
75768;SDS011;64379;48.888;8.330;2023-03-01T00:26:08;17.90;;;8.10;;
75768;SDS011;64379;48.888;8.330;2023-03-01T00:28:35;15.70;;;6.60;;
75768;SDS011;64379;48.888;8.330;2023-03-01T00:31:05;17.27;;;7.47;;
75768;SDS011;64379;48.888;8.330;2023-03-01T00:33:31;14.57;;;6.72;;
75768;SDS011;64379;48.888;8.330;2023-03-01T00:35:58;22.95;;;8.18;;
75768;SDS011;64379;48.888;8.330;2023-03-01T00:38:23;19.48;;;7.55;;
75768;SDS011;64379;48.888;8.330;2023-03-01T00:40:49;14.45;;;6.75;;
75768;SDS011;64379;48.888;8.330;2023-03-01T00:43:15;17.13;;;7.50;;
75768;SDS011;64379;48.888;8.330;2023-03-01T00:45:40;14.60;;;6.82;;
75768;SDS011;64379;48.888;8.330;2023-03-01T00:48:06;14.05;;;6.90;;
75768;SDS011;64379;48.888;8.330;2023-03-01T00:50:32;19.73;;;7.82;;
75768;SDS011;64379;48.888;8.330;2023-03-01T00:52:57;15.35;;;7.05;;
75768;SDS011;64379;48.888;8.330;2023-03-01T00:55:23;17.45;;;7.50;;
75768;SDS011;64379;48.888;8.330;2023-03-01T00:57:49;19.88;;;7.53;;
75768;SDS011;64379;48.888;8.330;2023-03-01T01:00:15;16.20;;;6.38;;
75768;SDS011;64379;48.888;8.330;2023-03-01T01:02:41;14.43;;;6.47;;
75768;SDS011;64379;48.888;8.330;2023-03-01T01:05:07;15.88;;;6.15;;
75768;SDS011;64379;48.888;8.330;2023-03-01T01:07:33;19.83;;;7.50;;
75768;SDS011;64379;48.888;8.330;2023-03-01T01:09:59;15.20;;;7.05;;
75768;SDS011;64379;48.888;8.330;2023-03-01T01:12:24;13.85;;;7.20;;
75768;SDS011;64379;48.888;8.330;2023-03-01T01:14:50;15.55;;;6.35;;
75768;SDS011;64379;48.888;8.330;2023-03-01T01:17:16;17.65;;;6.85;;
75768;SDS011;64379;48.888;8.330;2023-03-01T01:19:41;17.65;;;7.05;;
75768;SDS011;64379;48.888;8.330;2023-03-01T01:22:07;22.00;;;7.57;;
75768;SDS011;64379;48.888;8.330;2023-03-01T01:24:32;14.18;;;6.50;;
75768;SDS011;64379;48.888;8.330;2023-03-01T01:26:58;17.10;;;6.85;;
75768;SDS011;64379;48.888;8.330;2023-03-01T01:29:23;18.08;;;7.13;;
75768;SDS011;64379;48.888;8.330;2023-03-01T01:31:49;16.08;;;6.90;;
75768;SDS011;64379;48.888;8.330;2023-03-01T01:34:16;17.67;;;6.93;;
75768;SDS011;64379;48.888;8.330;2023-03-01T01:36:47;15.88;;;6.82;;
75768;SDS011;64379;48.888;8.330;2023-03-01T01:39:14;17.35;;;7.68;;
75768;SDS011;64379;48.888;8.330;2023-03-01T01:41:40;14.23;;;6.22;;
75768;SDS011;64379;48.888;8.330;2023-03-01T01:46:37;16.42;;;6.97;;
75768;SDS011;64379;48.888;8.330;2023-03-01T01:52:07;14.45;;;6.25;;
75768;SDS011;64379;48.888;8.330;2023-03-01T01:54:46;15.32;;;7.10;;
75768;SDS011;64379;48.888;8.330;2023-03-01T01:57:26;16.60;;;6.45;;
75768;SDS011;64379;48.888;8.330;2023-03-01T01:59:58;16.35;;;7.43;;
75768;SDS011;64379;48.888;8.330;2023-03-01T02:02:27;15.02;;;6.82;;
75768;SDS011;64379;48.888;8.330;2023-03-01T02:04:55;13.35;;;6.18;;
75768;SDS011;64379;48.888;8.330;2023-03-01T02:07:35;15.07;;;6.63;;
75768;SDS011;64379;48.888;8.330;2023-03-01T02:10:04;14.35;;;6.80;;
75768;SDS011;64379;48.888;8.330;2023-03-01T02:12:30;15.60;;;6.95;;
75768;SDS011;64379;48.888;8.330;2023-03-01T02:14:55;15.43;;;6.97;;
75768;SDS011;64379;48.888;8.330;2023-03-01T02:17:21;18.25;;;8.27;;
75768;SDS011;64379;48.888;8.330;2023-03-01T02:22:35;19.73;;;7.82;;
75768;SDS011;64379;48.888;8.330;2023-03-01T02:25:12;17.08;;;7.63;;
75768;SDS011;64379;48.888;8.330;2023-03-01T02:30:21;16.13;;;6.53;;
75768;SDS011;64379;48.888;8.330;2023-03-01T02:32:50;15.50;;;7.25;;
75768;SDS011;64379;48.888;8.330;2023-03-01T02:35:16;16.42;;;7.50;;
75768;SDS011;64379;48.888;8.330;2023-03-01T02:37:44;16.50;;;7.57;;
75768;SDS011;64379;48.888;8.330;2023-03-01T02:40:13;18.00;;;7.45;;
75768;SDS011;64379;48.888;8.330;2023-03-01T02:42:54;17.45;;;7.65;;
75768;SDS011;64379;48.888;8.330;2023-03-01T02:45:22;16.98;;;7.68;;
75768;SDS011;64379;48.888;8.330;2023-03-01T02:47:48;16.13;;;7.63;;
75768;SDS011;64379;48.888;8.330;2023-03-01T02:55:29;18.25;;;7.57;;
75768;SDS011;64379;48.888;8.330;2023-03-01T02:57:55;19.48;;;8.27;;
75768;SDS011;64379;48.888;8.330;2023-03-01T03:00:26;20.42;;;8.38;;
75768;SDS011;64379;48.888;8.330;2023-03-01T03:02:58;18.55;;;8.50;;
75768;SDS011;64379;48.888;8.330;2023-03-01T03:05:25;16.73;;;7.38;;
75768;SDS011;64379;48.888;8.330;2023-03-01T03:07:53;22.23;;;7.55;;
75768;SDS011;64379;48.888;8.330;2023-03-01T03:10:21;18.63;;;7.90;;
75768;SDS011;64379;48.888;8.330;2023-03-01T03:12:53;17.23;;;7.85;;
75768;SDS011;64379;48.888;8.330;2023-03-01T03:15:21;14.30;;;7.18;;
75768;SDS011;64379;48.888;8.330;2023-03-01T03:17:48;18.13;;;7.75;;
75768;SDS011;64379;48.888;8.330;2023-03-01T03:20:15;21.50;;;7.55;;
75768;SDS011;64379;48.888;8.330;2023-03-01T03:25:10;16.98;;;6.88;;
75768;SDS011;64379;48.888;8.330;2023-03-01T03:27:36;18.52;;;7.40;;
75768;SDS011;64379;48.888;8.330;2023-03-01T03:30:03;19.70;;;8.68;;
75768;SDS011;64379;48.888;8.330;2023-03-01T03:32:35;15.73;;;7.45;;
75768;SDS011;64379;48.888;8.330;2023-03-01T03:35:02;12.63;;;6.03;;
75768;SDS011;64379;48.888;8.330;2023-03-01T03:37:35;16.92;;;6.68;;
75768;SDS011;64379;48.888;8.330;2023-03-01T03:40:23;18.42;;;8.27;;
75768;SDS011;64379;48.888;8.330;2023-03-01T03:42:49;16.92;;;7.57;;
75768;SDS011;64379;48.888;8.330;2023-03-01T03:45:15;17.08;;;7.50;;
75768;SDS011;64379;48.888;8.330;2023-03-01T03:47:41;16.05;;;7.32;;
75768;SDS011;64379;48.888;8.330;2023-03-01T03:50:08;19.10;;;8.25;;
75768;SDS011;64379;48.888;8.330;2023-03-01T03:52:35;15.98;;;7.68;;
75768;SDS011;64379;48.888;8.330;2023-03-01T03:55:01;19.35;;;7.55;;
75768;SDS011;64379;48.888;8.330;2023-03-01T03:57:26;16.48;;;7.47;;
75768;SDS011;64379;48.888;8.330;2023-03-01T03:59:52;18.88;;;7.57;;
75768;SDS011;64379;48.888;8.330;2023-03-01T04:02:17;17.35;;;7.75;;
75768;SDS011;64379;48.888;8.330;2023-03-01T04:04:50;19.55;;;7.90;;
75768;SDS011;64379;48.888;8.330;2023-03-01T04:07:16;20.98;;;7.90;;
75768;SDS011;64379;48.888;8.330;2023-03-01T04:09:42;20.90;;;8.02;;
75768;SDS011;64379;48.888;8.330;2023-03-01T04:12:08;24.25;;;8.07;;
75768;SDS011;64379;48.888;8.330;2023-03-01T04:14:34;17.35;;;7.65;;
75768;SDS011;64379;48.888;8.330;2023-03-01T04:17:00;17.45;;;7.53;;
75768;SDS011;64379;48.888;8.330;2023-03-01T04:19:26;18.08;;;7.20;;
75768;SDS011;64379;48.888;8.330;2023-03-01T04:21:52;18.63;;;7.80;;
75768;SDS011;64379;48.888;8.330;2023-03-01T04:24:18;22.20;;;8.90;;
75768;SDS011;64379;48.888;8.330;2023-03-01T04:26:43;20.35;;;8.65;;
75768;SDS011;64379;48.888;8.330;2023-03-01T04:29:09;16.95;;;7.22;;
75768;SDS011;64379;48.888;8.330;2023-03-01T04:31:35;13.88;;;6.93;;
75768;SDS011;64379;48.888;8.330;2023-03-01T04:34:01;18.05;;;8.27;;
75768;SDS011;64379;48.888;8.330;2023-03-01T04:36:28;21.08;;;8.13;;
75768;SDS011;64379;48.888;8.330;2023-03-01T04:38:54;20.38;;;7.50;;
75768;SDS011;64379;48.888;8.330;2023-03-01T04:41:22;18.38;;;8.15;;
75768;SDS011;64379;48.888;8.330;2023-03-01T04:43:49;21.55;;;9.50;;
75768;SDS011;64379;48.888;8.330;2023-03-01T04:46:15;20.58;;;8.27;;
75768;SDS011;64379;48.888;8.330;2023-03-01T04:48:44;19.13;;;8.77;;
75768;SDS011;64379;48.888;8.330;2023-03-01T04:51:11;20.67;;;8.55;;
75768;SDS011;64379;48.888;8.330;2023-03-01T04:53:40;19.75;;;8.68;;
75768;SDS011;64379;48.888;8.330;2023-03-01T04:56:06;18.40;;;7.82;;
75768;SDS011;64379;48.888;8.330;2023-03-01T04:58:32;17.58;;;7.15;;
75768;SDS011;64379;48.888;8.330;2023-03-01T05:00:58;21.67;;;7.78;;
75768;SDS011;64379;48.888;8.330;2023-03-01T05:03:23;19.60;;;8.40;;
75768;SDS011;64379;48.888;8.330;2023-03-01T05:05:50;18.85;;;8.45;;
75768;SDS011;64379;48.888;8.330;2023-03-01T05:08:17;20.40;;;9.18;;
75768;SDS011;64379;48.888;8.330;2023-03-01T05:10:48;18.95;;;7.60;;
75768;SDS011;64379;48.888;8.330;2023-03-01T05:13:16;21.52;;;9.43;;
75768;SDS011;64379;48.888;8.330;2023-03-01T05:15:53;20.35;;;9.65;;
75768;SDS011;64379;48.888;8.330;2023-03-01T05:18:19;21.05;;;9.18;;
75768;SDS011;64379;48.888;8.330;2023-03-01T05:20:45;18.63;;;9.27;;
75768;SDS011;64379;48.888;8.330;2023-03-01T05:23:12;18.45;;;7.63;;
75768;SDS011;64379;48.888;8.330;2023-03-01T05:25:38;23.02;;;10.88;;
75768;SDS011;64379;48.888;8.330;2023-03-01T05:28:05;24.08;;;10.02;;
75768;SDS011;64379;48.888;8.330;2023-03-01T05:30:34;19.50;;;8.52;;
75768;SDS011;64379;48.888;8.330;2023-03-01T05:33:01;22.25;;;9.63;;
75768;SDS011;64379;48.888;8.330;2023-03-01T05:35:27;19.95;;;8.90;;
75768;SDS011;64379;48.888;8.330;2023-03-01T05:37:54;21.50;;;9.25;;
75768;SDS011;64379;48.888;8.330;2023-03-01T05:40:20;20.65;;;8.60;;
75768;SDS011;64379;48.888;8.330;2023-03-01T05:42:50;20.17;;;7.47;;
75768;SDS011;64379;48.888;8.330;2023-03-01T05:45:19;20.40;;;8.93;;
75768;SDS011;64379;48.888;8.330;2023-03-01T05:47:46;22.17;;;9.32;;
75768;SDS011;64379;48.888;8.330;2023-03-01T05:50:14;16.52;;;7.72;;
75768;SDS011;64379;48.888;8.330;2023-03-01T05:52:52;22.90;;;9.20;;
75768;SDS011;64379;48.888;8.330;2023-03-01T05:55:22;20.42;;;8.85;;
75768;SDS011;64379;48.888;8.330;2023-03-01T05:57:48;19.98;;;8.88;;
75768;SDS011;64379;48.888;8.330;2023-03-01T06:00:15;20.13;;;8.90;;
75768;SDS011;64379;48.888;8.330;2023-03-01T06:02:43;22.50;;;9.52;;
75768;SDS011;64379;48.888;8.330;2023-03-01T06:05:09;22.13;;;9.20;;
75768;SDS011;64379;48.888;8.330;2023-03-01T06:07:36;20.98;;;9.23;;
75768;SDS011;64379;48.888;8.330;2023-03-01T06:10:02;22.38;;;9.00;;
75768;SDS011;64379;48.888;8.330;2023-03-01T06:12:32;24.70;;;10.55;;
75768;SDS011;64379;48.888;8.330;2023-03-01T06:14:58;23.77;;;11.23;;
75768;SDS011;64379;48.888;8.330;2023-03-01T06:17:24;21.75;;;9.27;;
75768;SDS011;64379;48.888;8.330;2023-03-01T06:19:50;21.38;;;9.35;;
75768;SDS011;64379;48.888;8.330;2023-03-01T06:22:16;26.30;;;10.30;;
75768;SDS011;64379;48.888;8.330;2023-03-01T06:24:42;20.05;;;8.80;;
75768;SDS011;64379;48.888;8.330;2023-03-01T06:27:07;19.05;;;8.95;;
75768;SDS011;64379;48.888;8.330;2023-03-01T06:29:33;21.60;;;9.02;;
75768;SDS011;64379;48.888;8.330;2023-03-01T06:31:59;22.40;;;9.88;;
75768;SDS011;64379;48.888;8.330;2023-03-01T06:34:24;21.15;;;9.55;;
75768;SDS011;64379;48.888;8.330;2023-03-01T06:36:50;23.45;;;10.73;;
75768;SDS011;64379;48.888;8.330;2023-03-01T06:39:15;18.23;;;7.47;;
75768;SDS011;64379;48.888;8.330;2023-03-01T06:41:42;18.52;;;7.95;;
75768;SDS011;64379;48.888;8.330;2023-03-01T06:44:08;22.80;;;10.02;;
75768;SDS011;64379;48.888;8.330;2023-03-01T06:46:34;23.60;;;9.52;;
75768;SDS011;64379;48.888;8.330;2023-03-01T06:48:59;20.83;;;9.60;;
75768;SDS011;64379;48.888;8.330;2023-03-01T06:51:25;21.77;;;9.48;;
75768;SDS011;64379;48.888;8.330;2023-03-01T06:53:51;23.58;;;9.93;;
75768;SDS011;64379;48.888;8.330;2023-03-01T06:56:16;22.45;;;8.88;;
75768;SDS011;64379;48.888;8.330;2023-03-01T06:58:42;19.63;;;8.90;;
75768;SDS011;64379;48.888;8.330;2023-03-01T07:01:08;18.63;;;8.00;;
75768;SDS011;64379;48.888;8.330;2023-03-01T07:03:34;21.00;;;9.55;;
75768;SDS011;64379;48.888;8.330;2023-03-01T07:05:59;22.05;;;9.48;;
75768;SDS011;64379;48.888;8.330;2023-03-01T07:08:25;21.60;;;9.18;;
75768;SDS011;64379;48.888;8.330;2023-03-01T07:10:55;20.05;;;9.52;;
75768;SDS011;64379;48.888;8.330;2023-03-01T07:13:24;21.23;;;9.25;;
75768;SDS011;64379;48.888;8.330;2023-03-01T07:15:50;19.15;;;7.63;;
75768;SDS011;64379;48.888;8.330;2023-03-01T07:18:15;20.25;;;8.20;;
75768;SDS011;64379;48.888;8.330;2023-03-01T07:20:41;17.50;;;8.73;;
75768;SDS011;64379;48.888;8.330;2023-03-01T07:23:06;22.10;;;10.60;;
75768;SDS011;64379;48.888;8.330;2023-03-01T07:25:32;19.05;;;8.60;;
75768;SDS011;64379;48.888;8.330;2023-03-01T07:27:58;21.08;;;8.85;;
75768;SDS011;64379;48.888;8.330;2023-03-01T07:30:24;20.05;;;9.00;;
75768;SDS011;64379;48.888;8.330;2023-03-01T07:32:53;17.45;;;8.60;;
75768;SDS011;64379;48.888;8.330;2023-03-01T07:35:20;23.00;;;9.98;;
75768;SDS011;64379;48.888;8.330;2023-03-01T07:37:46;20.30;;;9.15;;
75768;SDS011;64379;48.888;8.330;2023-03-01T07:40:12;23.55;;;9.63;;
75768;SDS011;64379;48.888;8.330;2023-03-01T07:42:38;23.17;;;10.07;;
75768;SDS011;64379;48.888;8.330;2023-03-01T07:45:04;20.33;;;9.00;;
75768;SDS011;64379;48.888;8.330;2023-03-01T07:47:30;18.35;;;8.85;;
75768;SDS011;64379;48.888;8.330;2023-03-01T07:49:56;21.63;;;8.80;;
75768;SDS011;64379;48.888;8.330;2023-03-01T07:52:22;19.15;;;8.85;;
75768;SDS011;64379;48.888;8.330;2023-03-01T07:54:47;19.38;;;8.98;;
75768;SDS011;64379;48.888;8.330;2023-03-01T07:57:13;21.10;;;10.10;;
75768;SDS011;64379;48.888;8.330;2023-03-01T07:59:39;20.00;;;10.35;;
75768;SDS011;64379;48.888;8.330;2023-03-01T08:02:05;17.42;;;8.60;;
75768;SDS011;64379;48.888;8.330;2023-03-01T08:04:31;21.63;;;9.40;;
75768;SDS011;64379;48.888;8.330;2023-03-01T08:06:58;20.80;;;9.48;;
75768;SDS011;64379;48.888;8.330;2023-03-01T08:09:24;19.60;;;9.65;;
75768;SDS011;64379;48.888;8.330;2023-03-01T08:11:50;21.33;;;9.90;;
75768;SDS011;64379;48.888;8.330;2023-03-01T08:14:15;25.08;;;9.77;;
75768;SDS011;64379;48.888;8.330;2023-03-01T08:16:41;21.92;;;10.98;;
75768;SDS011;64379;48.888;8.330;2023-03-01T08:19:08;23.63;;;9.65;;
75768;SDS011;64379;48.888;8.330;2023-03-01T08:21:35;20.15;;;8.98;;
75768;SDS011;64379;48.888;8.330;2023-03-01T08:24:02;27.30;;;11.90;;
75768;SDS011;64379;48.888;8.330;2023-03-01T08:26:28;23.25;;;10.60;;
75768;SDS011;64379;48.888;8.330;2023-03-01T08:28:54;20.75;;;10.00;;
75768;SDS011;64379;48.888;8.330;2023-03-01T08:31:21;25.17;;;10.45;;
75768;SDS011;64379;48.888;8.330;2023-03-01T08:33:49;18.88;;;9.25;;
75768;SDS011;64379;48.888;8.330;2023-03-01T08:36:20;16.90;;;7.05;;
75768;SDS011;64379;48.888;8.330;2023-03-01T08:38:52;20.02;;;9.45;;
75768;SDS011;64379;48.888;8.330;2023-03-01T08:41:18;22.73;;;10.85;;
75768;SDS011;64379;48.888;8.330;2023-03-01T08:43:44;21.17;;;10.05;;
75768;SDS011;64379;48.888;8.330;2023-03-01T08:46:10;23.33;;;10.65;;
75768;SDS011;64379;48.888;8.330;2023-03-01T08:48:36;23.45;;;10.90;;
75768;SDS011;64379;48.888;8.330;2023-03-01T08:51:11;18.63;;;9.05;;
75768;SDS011;64379;48.888;8.330;2023-03-01T08:53:41;21.73;;;9.60;;
75768;SDS011;64379;48.888;8.330;2023-03-01T08:56:07;21.73;;;10.40;;
75768;SDS011;64379;48.888;8.330;2023-03-01T08:58:33;24.67;;;10.95;;
75768;SDS011;64379;48.888;8.330;2023-03-01T09:00:59;20.52;;;8.98;;
75768;SDS011;64379;48.888;8.330;2023-03-01T09:03:25;20.25;;;10.20;;
75768;SDS011;64379;48.888;8.330;2023-03-01T09:05:51;20.17;;;9.18;;
75768;SDS011;64379;48.888;8.330;2023-03-01T09:08:18;19.63;;;9.45;;
75768;SDS011;64379;48.888;8.330;2023-03-01T09:10:44;16.58;;;8.15;;
75768;SDS011;64379;48.888;8.330;2023-03-01T09:13:10;19.40;;;9.23;;
75768;SDS011;64379;48.888;8.330;2023-03-01T09:15:36;21.00;;;11.15;;
75768;SDS011;64379;48.888;8.330;2023-03-01T09:18:02;20.15;;;9.98;;
75768;SDS011;64379;48.888;8.330;2023-03-01T09:20:29;20.77;;;9.43;;
75768;SDS011;64379;48.888;8.330;2023-03-01T09:22:56;20.45;;;8.63;;
75768;SDS011;64379;48.888;8.330;2023-03-01T09:25:21;20.90;;;9.73;;
75768;SDS011;64379;48.888;8.330;2023-03-01T09:27:49;17.10;;;7.60;;
75768;SDS011;64379;48.888;8.330;2023-03-01T09:30:16;19.23;;;9.10;;
75768;SDS011;64379;48.888;8.330;2023-03-01T09:32:42;21.55;;;9.80;;
75768;SDS011;64379;48.888;8.330;2023-03-01T09:35:09;18.17;;;9.13;;
75768;SDS011;64379;48.888;8.330;2023-03-01T09:37:36;24.13;;;11.93;;
75768;SDS011;64379;48.888;8.330;2023-03-01T09:40:03;19.10;;;8.95;;
75768;SDS011;64379;48.888;8.330;2023-03-01T09:42:31;22.42;;;9.93;;
75768;SDS011;64379;48.888;8.330;2023-03-01T09:45:00;19.67;;;9.65;;
75768;SDS011;64379;48.888;8.330;2023-03-01T09:47:31;26.40;;;10.77;;
75768;SDS011;64379;48.888;8.330;2023-03-01T09:50:12;21.45;;;10.73;;
75768;SDS011;64379;48.888;8.330;2023-03-01T09:52:47;17.55;;;8.70;;
75768;SDS011;64379;48.888;8.330;2023-03-01T09:55:29;17.80;;;8.80;;
75768;SDS011;64379;48.888;8.330;2023-03-01T10:01:02;18.42;;;9.93;;
75768;SDS011;64379;48.888;8.330;2023-03-01T10:06:25;20.65;;;10.48;;
75768;SDS011;64379;48.888;8.330;2023-03-01T10:11:34;18.70;;;9.75;;
75768;SDS011;64379;48.888;8.330;2023-03-01T10:16:57;21.42;;;9.77;;
75768;SDS011;64379;48.888;8.330;2023-03-01T10:22:05;23.58;;;9.77;;
75768;SDS011;64379;48.888;8.330;2023-03-01T10:24:50;18.80;;;9.23;;
75768;SDS011;64379;48.888;8.330;2023-03-01T10:32:38;21.25;;;10.13;;
75768;SDS011;64379;48.888;8.330;2023-03-01T10:35:23;22.25;;;9.70;;
75768;SDS011;64379;48.888;8.330;2023-03-01T10:37:59;21.77;;;9.80;;
75768;SDS011;64379;48.888;8.330;2023-03-01T10:40:29;19.33;;;10.48;;
75768;SDS011;64379;48.888;8.330;2023-03-01T10:43:00;17.55;;;9.65;;
75768;SDS011;64379;48.888;8.330;2023-03-01T10:45:33;21.52;;;10.38;;
75768;SDS011;64379;48.888;8.330;2023-03-01T10:48:03;23.38;;;10.18;;
75768;SDS011;64379;48.888;8.330;2023-03-01T10:50:29;19.95;;;9.38;;
75768;SDS011;64379;48.888;8.330;2023-03-01T10:52:57;16.70;;;8.52;;
75768;SDS011;64379;48.888;8.330;2023-03-01T10:55:30;22.25;;;10.45;;
75768;SDS011;64379;48.888;8.330;2023-03-01T11:00:32;18.73;;;9.32;;
75768;SDS011;64379;48.888;8.330;2023-03-01T11:05:24;17.77;;;8.65;;
75768;SDS011;64379;48.888;8.330;2023-03-01T11:07:57;22.38;;;10.63;;
75768;SDS011;64379;48.888;8.330;2023-03-01T11:10:24;19.45;;;9.02;;
75768;SDS011;64379;48.888;8.330;2023-03-01T11:12:52;18.65;;;9.57;;
75768;SDS011;64379;48.888;8.330;2023-03-01T11:15:27;20.75;;;9.85;;
75768;SDS011;64379;48.888;8.330;2023-03-01T11:17:54;19.33;;;9.63;;
75768;SDS011;64379;48.888;8.330;2023-03-01T11:20:32;21.55;;;11.43;;
75768;SDS011;64379;48.888;8.330;2023-03-01T11:23:04;19.40;;;9.25;;
75768;SDS011;64379;48.888;8.330;2023-03-01T11:25:39;16.27;;;8.82;;
75768;SDS011;64379;48.888;8.330;2023-03-01T11:28:07;23.48;;;10.52;;
75768;SDS011;64379;48.888;8.330;2023-03-01T11:30:49;21.33;;;9.50;;
75768;SDS011;64379;48.888;8.330;2023-03-01T11:38:36;20.45;;;10.00;;
75768;SDS011;64379;48.888;8.330;2023-03-01T11:41:06;22.08;;;11.85;;
75768;SDS011;64379;48.888;8.330;2023-03-01T11:43:51;19.10;;;9.55;;
75768;SDS011;64379;48.888;8.330;2023-03-01T12:13:20;18.95;;;9.13;;
75768;SDS011;64379;48.888;8.330;2023-03-01T12:15:56;18.55;;;9.77;;
75768;SDS011;64379;48.888;8.330;2023-03-01T12:29:24;18.85;;;10.82;;
75768;SDS011;64379;48.888;8.330;2023-03-01T12:32:01;18.70;;;10.38;;
75768;SDS011;64379;48.888;8.330;2023-03-01T12:46:06;17.75;;;9.35;;
75768;SDS011;64379;48.888;8.330;2023-03-01T12:50:37;18.30;;;10.13;;
75768;SDS011;64379;48.888;8.330;2023-03-01T12:53:29;20.65;;;10.50;;
75768;SDS011;64379;48.888;8.330;2023-03-01T12:56:08;16.85;;;8.40;;
75768;SDS011;64379;48.888;8.330;2023-03-01T13:06:39;19.92;;;10.05;;
75768;SDS011;64379;48.888;8.330;2023-03-01T13:12:02;17.75;;;8.98;;
75768;SDS011;64379;48.888;8.330;2023-03-01T13:16:56;21.08;;;10.90;;
75768;SDS011;64379;48.888;8.330;2023-03-01T13:19:23;22.20;;;9.93;;
75768;SDS011;64379;48.888;8.330;2023-03-01T13:21:51;24.40;;;10.20;;
75768;SDS011;64379;48.888;8.330;2023-03-01T13:37:40;19.25;;;10.50;;
75768;SDS011;64379;48.888;8.330;2023-03-01T13:45:18;18.90;;;10.40;;
75768;SDS011;64379;48.888;8.330;2023-03-01T13:47:44;19.73;;;9.60;;
75768;SDS011;64379;48.888;8.330;2023-03-01T13:50:27;15.30;;;8.10;;
75768;SDS011;64379;48.888;8.330;2023-03-01T13:53:00;20.02;;;10.30;;
75768;SDS011;64379;48.888;8.330;2023-03-01T13:55:35;19.40;;;10.55;;
75768;SDS011;64379;48.888;8.330;2023-03-01T14:01:35;18.75;;;9.77;;
75768;SDS011;64379;48.888;8.330;2023-03-01T14:04:00;21.13;;;11.05;;
75768;SDS011;64379;48.888;8.330;2023-03-01T14:06:27;19.27;;;8.90;;
75768;SDS011;64379;48.888;8.330;2023-03-01T14:19:47;17.90;;;10.02;;
75768;SDS011;64379;48.888;8.330;2023-03-01T14:22:26;18.02;;;9.98;;
75768;SDS011;64379;48.888;8.330;2023-03-01T14:27:26;20.73;;;9.15;;
75768;SDS011;64379;48.888;8.330;2023-03-01T14:29:56;16.60;;;8.90;;
75768;SDS011;64379;48.888;8.330;2023-03-01T14:32:29;17.30;;;8.82;;
75768;SDS011;64379;48.888;8.330;2023-03-01T14:34:57;18.80;;;9.43;;
75768;SDS011;64379;48.888;8.330;2023-03-01T14:37:32;17.10;;;9.10;;
75768;SDS011;64379;48.888;8.330;2023-03-01T14:40:00;19.83;;;10.23;;
75768;SDS011;64379;48.888;8.330;2023-03-01T14:42:28;17.85;;;9.13;;
75768;SDS011;64379;48.888;8.330;2023-03-01T14:44:56;16.60;;;8.82;;
75768;SDS011;64379;48.888;8.330;2023-03-01T14:47:30;18.02;;;9.18;;
75768;SDS011;64379;48.888;8.330;2023-03-01T14:49:58;19.38;;;9.98;;
75768;SDS011;64379;48.888;8.330;2023-03-01T14:52:39;16.45;;;8.98;;
75768;SDS011;64379;48.888;8.330;2023-03-01T14:55:13;18.63;;;9.18;;
75768;SDS011;64379;48.888;8.330;2023-03-01T14:57:43;22.70;;;9.30;;
75768;SDS011;64379;48.888;8.330;2023-03-01T15:00:10;15.98;;;8.15;;
75768;SDS011;64379;48.888;8.330;2023-03-01T15:02:53;18.70;;;8.70;;
75768;SDS011;64379;48.888;8.330;2023-03-01T15:05:31;19.48;;;10.45;;
75768;SDS011;64379;48.888;8.330;2023-03-01T15:07:58;17.52;;;9.00;;
75768;SDS011;64379;48.888;8.330;2023-03-01T15:10:30;19.42;;;9.77;;
75768;SDS011;64379;48.888;8.330;2023-03-01T15:15:47;17.63;;;8.65;;
75768;SDS011;64379;48.888;8.330;2023-03-01T15:18:20;15.88;;;7.60;;
75768;SDS011;64379;48.888;8.330;2023-03-01T15:20:48;18.52;;;8.85;;
75768;SDS011;64379;48.888;8.330;2023-03-01T15:23:23;18.92;;;9.27;;
75768;SDS011;64379;48.888;8.330;2023-03-01T15:25:51;17.33;;;8.77;;
75768;SDS011;64379;48.888;8.330;2023-03-01T15:28:22;17.20;;;8.52;;
75768;SDS011;64379;48.888;8.330;2023-03-01T15:31:19;14.50;;;7.55;;
75768;SDS011;64379;48.888;8.330;2023-03-01T15:33:47;20.52;;;9.80;;
75768;SDS011;64379;48.888;8.330;2023-03-01T15:39:01;21.77;;;9.80;;
75768;SDS011;64379;48.888;8.330;2023-03-01T15:44:17;17.88;;;8.55;;
75768;SDS011;64379;48.888;8.330;2023-03-01T15:46:54;17.13;;;8.98;;
75768;SDS011;64379;48.888;8.330;2023-03-01T15:49:37;17.08;;;8.75;;
75768;SDS011;64379;48.888;8.330;2023-03-01T15:52:28;17.08;;;8.52;;
75768;SDS011;64379;48.888;8.330;2023-03-01T15:57:30;17.30;;;8.98;;
75768;SDS011;64379;48.888;8.330;2023-03-01T15:59:55;17.83;;;9.07;;
75768;SDS011;64379;48.888;8.330;2023-03-01T16:02:22;16.60;;;8.40;;
75768;SDS011;64379;48.888;8.330;2023-03-01T16:04:49;19.17;;;9.18;;
75768;SDS011;64379;48.888;8.330;2023-03-01T16:07:15;17.73;;;8.63;;
75768;SDS011;64379;48.888;8.330;2023-03-01T16:09:41;18.73;;;8.50;;
75768;SDS011;64379;48.888;8.330;2023-03-01T16:12:11;16.65;;;8.70;;
75768;SDS011;64379;48.888;8.330;2023-03-01T16:14:39;19.45;;;9.13;;
75768;SDS011;64379;48.888;8.330;2023-03-01T16:17:05;18.13;;;8.43;;
75768;SDS011;64379;48.888;8.330;2023-03-01T16:19:32;22.60;;;8.13;;
75768;SDS011;64379;48.888;8.330;2023-03-01T16:21:58;16.30;;;7.97;;
75768;SDS011;64379;48.888;8.330;2023-03-01T16:24:23;18.35;;;9.00;;
75768;SDS011;64379;48.888;8.330;2023-03-01T16:26:51;18.00;;;9.15;;
75768;SDS011;64379;48.888;8.330;2023-03-01T16:29:16;16.58;;;8.05;;
75768;SDS011;64379;48.888;8.330;2023-03-01T16:31:42;17.23;;;9.05;;
75768;SDS011;64379;48.888;8.330;2023-03-01T16:34:07;20.38;;;8.88;;
75768;SDS011;64379;48.888;8.330;2023-03-01T16:36:33;22.25;;;9.20;;
75768;SDS011;64379;48.888;8.330;2023-03-01T16:38:58;17.33;;;8.57;;
75768;SDS011;64379;48.888;8.330;2023-03-01T16:41:25;17.75;;;8.65;;
75768;SDS011;64379;48.888;8.330;2023-03-01T16:43:52;19.60;;;9.50;;
75768;SDS011;64379;48.888;8.330;2023-03-01T16:46:22;18.98;;;8.50;;
75768;SDS011;64379;48.888;8.330;2023-03-01T16:48:49;17.80;;;7.90;;
75768;SDS011;64379;48.888;8.330;2023-03-01T16:51:15;20.52;;;9.20;;
75768;SDS011;64379;48.888;8.330;2023-03-01T16:53:41;17.80;;;8.10;;
75768;SDS011;64379;48.888;8.330;2023-03-01T16:56:08;16.88;;;8.18;;
75768;SDS011;64379;48.888;8.330;2023-03-01T16:58:35;19.20;;;8.88;;
75768;SDS011;64379;48.888;8.330;2023-03-01T17:01:18;22.27;;;9.35;;
75768;SDS011;64379;48.888;8.330;2023-03-01T17:03:45;19.20;;;9.20;;
75768;SDS011;64379;48.888;8.330;2023-03-01T17:06:13;21.60;;;8.85;;
75768;SDS011;64379;48.888;8.330;2023-03-01T17:08:40;19.70;;;9.55;;
75768;SDS011;64379;48.888;8.330;2023-03-01T17:11:13;17.08;;;8.68;;
75768;SDS011;64379;48.888;8.330;2023-03-01T17:13:41;18.45;;;9.15;;
75768;SDS011;64379;48.888;8.330;2023-03-01T17:16:08;18.95;;;9.00;;
75768;SDS011;64379;48.888;8.330;2023-03-01T17:18:35;17.73;;;8.77;;
75768;SDS011;64379;48.888;8.330;2023-03-01T17:21:03;25.13;;;10.05;;